Time;durP1;ratioP1;P1;durP2;ratioP2;P2;SDS_P1;SDS_P2;PMS_P1;PMS_P2;Temp;Humidity;BMP_temperature;BMP_pressure;BME280_temperature;BME280_humidity;BME280_pressure;Samples;Min_cycle;Max_cycle;Signal;HPM_P1;HPM_P2
2024/02/21 00:01:46;;;;;;;43.97;28.67;;;;;;;6.24;100.00;128917.88;5049575;28;20032;-74
2024/02/21 00:04:12;;;;;;;43.63;28.80;;;;;;;6.29;100.00;129305.41;5067829;28;20465;-70
2024/02/21 00:06:37;;;;;;;41.60;27.70;;;;;;;5.63;100.00;129489.97;5068285;28;20063;-70
2024/02/21 00:09:03;;;;;;;41.90;28.30;;;;;;;6.11;100.00;129873.06;5067863;28;20036;-70
2024/02/21 00:11:28;;;;;;;44.67;29.17;;;;;;;6.07;100.00;130312.22;5067383;28;20093;-70
2024/02/21 00:13:54;;;;;;;42.40;28.73;;;;;;;6.18;100.00;130622.88;5066597;28;20077;-70
2024/02/21 00:16:19;;;;;;;41.65;27.60;;;;;;;5.42;100.00;130913.69;5067530;28;20032;-69
2024/02/21 00:18:45;;;;;;;44.58;29.25;;;;;;;5.65;100.00;131396.81;5068012;28;20162;-71
2024/02/21 00:21:14;;;;;;;42.30;28.67;;;;;;;6.14;100.00;134108.38;5067828;28;20037;-70
2024/02/21 00:23:40;;;;;;;42.30;28.38;;;;;;;6.09;100.00;134520.09;5049910;28;20031;-71
2024/02/21 00:26:06;;;;;;;43.08;27.98;;;;;;;5.91;100.00;135005.31;5067321;28;20123;-71
2024/02/21 00:28:31;;;;;;;45.38;29.70;;;;;;;6.09;100.00;135125.22;5068007;28;20036;-71
2024/02/21 00:30:57;;;;;;;44.97;28.92;;;;;;;6.01;100.00;135215.47;5066160;28;20036;-71
2024/02/21 00:33:22;;;;;;;42.78;27.77;;;;;;;6.27;100.00;135657.06;5052947;28;20471;-69
2024/02/21 00:35:47;;;;;;;41.85;27.98;;;;;;;6.04;100.00;135789.22;5071845;28;20024;-69
2024/02/21 00:38:13;;;;;;;45.33;28.48;;;;;;;5.94;100.00;136058.34;5070927;28;20042;-75
2024/02/21 00:40:38;;;;;;;40.35;27.15;;;;;;;6.03;100.00;135574.25;5071584;28;20056;-70
2024/02/21 00:43:04;;;;;;;41.58;28.00;;;;;;;6.27;100.00;135871.25;5070931;28;20056;-70
2024/02/21 00:45:29;;;;;;;45.95;29.05;;;;;;;5.68;100.00;136027.97;5071223;28;20033;-70
2024/02/21 00:47:54;;;;;;;45.33;29.48;;;;;;;5.38;100.00;136183.34;5052647;28;20445;-71
2024/02/21 00:50:20;;;;;;;45.97;29.60;;;;;;;5.99;100.00;136630.59;5070339;28;20028;-71
2024/02/21 00:52:45;;;;;;;45.00;29.75;;;;;;;5.50;100.00;136763.59;5061519;28;20040;-69
2024/02/21 00:55:11;;;;;;;43.53;29.42;;;;;;;5.89;100.00;137153.09;5062205;28;20063;-69
2024/02/21 00:57:36;;;;;;;46.25;30.73;;;;;;;5.36;100.00;137175.91;5034594;28;20040;-69
2024/02/21 01:00:03;;;;;;;41.58;28.67;;;;;;;6.21;100.00;137644.13;5040493;28;20029;-69
2024/02/21 01:02:31;;;;;;;48.28;30.30;;;;;;;6.06;100.00;137791.66;5040468;28;20032;-70
2024/02/21 01:04:57;;;;;;;43.58;29.88;;;;;;;6.19;100.00;138000.38;5042085;28;20025;-70
2024/02/21 01:07:22;;;;;;;47.13;30.00;;;;;;;5.79;100.00;138052.75;5038399;28;20408;-74
2024/02/21 01:09:48;;;;;;;43.78;29.58;;;;;;;5.59;100.00;138161.72;5043741;28;20040;-69
2024/02/21 01:12:13;;;;;;;43.92;29.25;;;;;;;5.79;100.00;138279.66;5040514;28;20086;-69
2024/02/21 01:14:39;;;;;;;47.10;29.23;;;;;;;6.42;100.00;138537.56;5040998;28;20051;-68
2024/02/21 01:17:06;;;;;;;45.83;29.30;;;;;;;5.71;100.00;138498.13;5039302;28;20033;-69
2024/02/21 01:19:31;;;;;;;41.92;28.83;;;;;;;6.19;100.00;138673.94;5041963;28;20039;-70
2024/02/21 01:21:57;;;;;;;44.85;30.00;;;;;;;6.33;100.00;138788.28;5043245;28;20117;-71
2024/02/21 01:24:22;;;;;;;45.25;30.17;;;;;;;5.39;100.00;138692.25;5041004;28;20095;-69
2024/02/21 01:26:47;;;;;;;46.13;29.98;;;;;;;5.98;100.00;138795.81;5039640;28;20029;-69
2024/02/21 01:29:13;;;;;;;44.17;30.60;;;;;;;6.43;100.00;138941.81;5045481;28;20119;-71
2024/02/21 01:31:38;;;;;;;45.03;30.25;;;;;;;6.56;100.00;139065.50;5035971;28;20029;-70
2024/02/21 01:34:03;;;;;;;45.67;29.85;;;;;;;6.39;100.00;139097.22;5041421;28;20033;-70
2024/02/21 01:36:29;;;;;;;44.70;30.67;;;;;;;6.34;100.00;139137.72;5042846;28;20037;-70
2024/02/21 01:38:54;;;;;;;51.38;32.85;;;;;;;6.03;100.00;139105.97;5042853;28;20415;-70
2024/02/21 01:41:20;;;;;;;44.83;30.50;;;;;;;6.27;100.00;139279.59;5041777;28;20025;-70
2024/02/21 01:43:45;;;;;;;46.95;30.73;;;;;;;5.89;100.00;139329.44;5039454;28;20477;-70
2024/02/21 01:46:11;;;;;;;45.95;31.23;;;;;;;6.02;100.00;139430.22;5036812;28;20041;-70
2024/02/21 01:48:37;;;;;;;47.78;32.13;;;;;;;5.39;100.00;139292.53;5039752;28;20055;-75
2024/02/21 01:51:04;;;;;;;45.67;31.20;;;;;;;6.23;100.00;139508.94;5033075;28;20479;-69
2024/02/21 01:53:32;;;;;;;48.38;31.63;;;;;;;6.12;100.00;139606.78;5037533;28;20037;-69
2024/02/21 01:55:58;;;;;;;45.83;30.88;;;;;;;5.59;100.00;139580.28;5068892;28;20029;-69
2024/02/21 01:58:24;;;;;;;46.88;32.45;;;;;;;5.84;100.00;139725.81;5051595;28;20051;-70
2024/02/21 02:00:50;;;;;;;47.38;31.73;;;;;;;6.06;100.00;139763.69;5067901;28;20103;-70
2024/02/21 02:03:18;;;;;;;48.20;31.88;;;;;;;6.10;100.00;139862.41;5051570;28;20044;-70
2024/02/21 02:05:48;;;;;;;49.85;32.55;;;;;;;6.00;100.00;139980.34;5069237;28;20024;-70
2024/02/21 02:08:14;;;;;;;53.17;32.42;;;;;;;6.21;100.00;140101.53;5050809;28;20035;-70
2024/02/21 02:10:40;;;;;;;46.25;31.88;;;;;;;5.82;100.00;140166.34;5051310;28;20058;-69
2024/02/21 02:13:06;;;;;;;50.22;32.53;;;;;;;5.29;100.00;140137.91;5067727;28;20479;-70
2024/02/21 02:15:41;;;;;;;47.70;32.15;;;;;;;6.08;100.00;140405.03;5069071;28;20036;-69
2024/02/21 02:18:07;;;;;;;48.95;31.15;;;;;;;6.11;100.00;140574.31;5069145;28;20024;-74
2024/02/21 02:20:33;;;;;;;46.92;31.17;;;;;;;5.45;100.00;140556.97;5068492;28;21393;-70
2024/02/21 02:23:05;;;;;;;45.08;30.95;;;;;;;6.23;100.00;140806.97;5069196;28;20062;-70
2024/02/21 02:25:31;;;;;;;47.72;30.95;;;;;;;6.44;100.00;141022.78;5051282;28;20025;-69
2024/02/21 02:27:56;;;;;;;49.20;32.78;;;;;;;5.83;100.00;140992.78;5051116;28;20032;-69
2024/02/21 02:30:21;;;;;;;48.53;31.90;;;;;;;6.38;100.00;141191.28;5053973;28;20033;-69
2024/02/21 02:32:47;;;;;;;48.65;31.20;;;;;;;5.71;100.00;141117.38;5050683;28;20095;-69
2024/02/21 02:35:13;;;;;;;45.17;29.95;;;;;;;6.39;100.00;141385.19;5068843;28;20032;-69
2024/02/21 02:37:38;;;;;;;45.97;30.92;;;;;;;6.00;100.00;141384.09;5069232;28;20032;-69
2024/02/21 02:40:06;;;;;;;44.35;30.02;;;;;;;6.28;100.00;141533.88;5068977;28;20028;-70
2024/02/21 02:42:31;;;;;;;47.83;30.92;;;;;;;6.41;100.00;141585.31;5067628;28;20257;-69
2024/02/21 02:44:57;;;;;;;43.67;30.92;;;;;;;6.38;100.00;141695.66;5050842;28;20047;-69
2024/02/21 02:47:22;;;;;;;42.42;29.83;;;;;;;6.17;100.00;141765.59;5068156;28;20042;-69
2024/02/21 02:49:50;;;;;;;44.55;29.90;;;;;;;5.82;100.00;141761.13;5050468;28;20399;-69
2024/02/21 02:52:16;;;;;;;46.22;30.40;;;;;;;5.94;100.00;141857.38;5068983;28;20059;-69
2024/02/21 02:54:42;;;;;;;45.63;30.10;;;;;;;6.09;100.00;141888.13;5049347;28;20044;-69
2024/02/21 02:57:08;;;;;;;43.97;29.75;;;;;;;6.23;100.00;142068.53;5068331;28;20521;-69
2024/02/21 02:59:33;;;;;;;45.38;29.25;;;;;;;6.19;100.00;142156.00;5069053;28;20410;-71
2024/02/21 03:01:58;;;;;;;41.58;29.67;;;;;;;6.25;100.00;142271.34;5050122;28;20418;-68
2024/02/21 03:04:24;;;;;;;44.33;29.13;;;;;;;5.55;100.00;142197.91;5050102;28;20518;-69
2024/02/21 03:06:50;;;;;;;44.28;29.30;;;;;;;5.81;100.00;142320.25;5068490;28;20028;-69
2024/02/21 03:09:17;;;;;;;45.28;29.80;;;;;;;6.06;100.00;142354.75;5050450;28;20028;-69
2024/02/21 03:11:44;;;;;;;47.20;31.90;;;;;;;5.49;100.00;142364.66;5050340;28;20036;-69
2024/02/21 03:14:10;;;;;;;48.05;31.55;;;;;;;6.10;100.00;142573.75;5068728;28;20025;-69
2024/02/21 03:16:35;;;;;;;50.30;30.45;;;;;;;6.38;100.00;142708.78;5048275;28;20029;-70
2024/02/21 03:19:00;;;;;;;47.78;30.20;;;;;;;6.56;100.00;142789.00;5050627;28;20091;-69
2024/02/21 03:21:26;;;;;;;45.50;31.02;;;;;;;6.46;100.00;142823.75;5059021;28;20099;-69
2024/02/21 03:23:51;;;;;;;45.38;31.80;;;;;;;6.03;100.00;142763.78;5059193;28;20071;-70
2024/02/21 03:26:17;;;;;;;47.50;31.52;;;;;;;6.46;100.00;142925.97;5068586;28;20487;-70
2024/02/21 03:28:46;;;;;;;45.80;30.35;;;;;;;6.40;100.00;142910.34;5068375;28;20032;-70
2024/02/21 03:31:13;;;;;;;48.70;30.80;;;;;;;6.24;100.00;142975.22;5068485;28;20097;-70
2024/02/21 03:33:40;;;;;;;47.00;30.67;;;;;;;6.10;100.00;142992.63;5066371;28;20064;-67
2024/02/21 03:36:05;;;;;;;45.60;30.70;;;;;;;5.54;100.00;142867.94;5049898;28;20038;-68
2024/02/21 03:38:31;;;;;;;48.47;30.60;;;;;;;6.10;100.00;143051.38;5049940;28;20037;-69
2024/02/21 03:40:56;;;;;;;44.72;29.58;;;;;;;5.77;100.00;143016.44;5064017;28;20024;-69
2024/02/21 03:43:21;;;;;;;42.85;29.73;;;;;;;5.81;100.00;143068.25;5067829;28;20028;-68
2024/02/21 03:45:47;;;;;;;46.40;30.83;;;;;;;5.99;100.00;143151.22;5049057;28;20039;-68
2024/02/21 03:48:12;;;;;;;45.15;29.73;;;;;;;6.28;100.00;143246.88;5049255;28;20558;-69
2024/02/21 03:50:38;;;;;;;43.97;30.23;;;;;;;5.60;100.00;143131.16;5055558;28;20502;-69
2024/02/21 03:53:03;;;;;;;43.47;29.88;;;;;;;5.73;100.00;143184.25;5066612;28;20031;-73
2024/02/21 03:55:28;;;;;;;44.60;30.67;;;;;;;6.13;100.00;143297.38;5067725;28;20060;-69
2024/02/21 03:57:54;;;;;;;46.22;30.73;;;;;;;6.43;100.00;143409.50;5067005;28;20043;-69
2024/02/21 04:00:19;;;;;;;48.90;30.65;;;;;;;6.32;100.00;143407.28;5050139;28;20028;-70
2024/02/21 04:02:45;;;;;;;42.85;29.45;;;;;;;5.43;100.00;143221.66;5066284;28;20111;-73
2024/02/21 04:05:10;;;;;;;44.05;30.65;;;;;;;6.12;100.00;143402.25;5066471;28;20039;-69
2024/02/21 04:07:37;;;;;;;48.67;31.10;;;;;;;5.11;100.00;143228.41;5053669;28;20071;-68
2024/02/21 04:10:03;;;;;;;47.03;31.67;;;;;;;5.63;100.00;143343.91;5071892;28;20454;-68
2024/02/21 04:12:29;;;;;;;45.50;29.25;;;;;;;5.42;100.00;143313.63;5068146;28;20028;-68
2024/02/21 04:14:54;;;;;;;45.03;31.38;;;;;;;5.81;100.00;143355.44;5051949;28;21919;-68
2024/02/21 04:17:20;;;;;;;47.78;32.00;;;;;;;6.22;100.00;143568.28;5069619;28;20058;-69
2024/02/21 04:19:45;;;;;;;47.28;31.60;;;;;;;6.03;100.00;143542.78;5072204;28;20024;-69
2024/02/21 04:22:10;;;;;;;45.30;30.95;;;;;;;6.03;100.00;143583.66;5069693;28;20036;-69
2024/02/21 04:24:36;;;;;;;48.00;31.80;;;;;;;6.00;100.00;143615.91;5069538;28;20036;-73
2024/02/21 04:27:02;;;;;;;46.72;30.67;;;;;;;5.79;100.00;143577.84;5069759;28;20025;-70
2024/02/21 04:29:28;;;;;;;45.63;30.02;;;;;;;5.74;100.00;143584.97;5069269;28;20039;-71
2024/02/21 04:31:54;;;;;;;43.95;29.42;;;;;;;5.99;100.00;143660.84;5052448;28;20028;-71
2024/02/21 04:34:19;;;;;;;43.60;29.35;;;;;;;6.46;100.00;143786.16;5069718;28;20486;-69
2024/02/21 04:36:44;;;;;;;44.65;29.88;;;;;;;6.15;100.00;143643.34;5069762;28;20028;-68
2024/02/21 04:39:11;;;;;;;61.38;39.88;;;;;;;5.66;100.00;143663.84;5069663;28;20406;-73
2024/02/21 04:41:36;;;;;;;65.25;40.75;;;;;;;5.72;100.00;143696.25;5051740;28;20028;-70
2024/02/21 04:44:03;;;;;;;55.83;36.10;;;;;;;5.79;100.00;143714.53;5069789;28;20042;-69
2024/02/21 04:46:29;;;;;;;106.30;60.67;;;;;;;6.33;100.00;143899.06;5069195;28;20447;-69
2024/02/21 04:48:55;;;;;;;108.68;64.20;;;;;;;6.38;100.00;143904.84;5069897;28;20119;-69
2024/02/21 04:51:21;;;;;;;83.15;51.33;;;;;;;5.71;100.00;143761.53;5065217;28;20035;-70
2024/02/21 04:53:46;;;;;;;77.28;51.00;;;;;;;6.29;100.00;143931.59;5068268;28;20037;-68
2024/02/21 04:56:12;;;;;;;80.03;51.85;;;;;;;6.14;100.00;143904.09;5069254;28;20107;-69
2024/02/21 04:58:39;;;;;;;80.47;54.03;;;;;;;5.89;100.00;143851.16;5067186;28;20036;-70
2024/02/21 05:01:04;;;;;;;61.42;41.90;;;;;;;5.41;100.00;143773.13;5068587;28;20032;-68
2024/02/21 05:03:30;;;;;;;60.88;40.28;;;;;;;6.14;100.00;143964.06;5068786;28;20372;-70
2024/02/21 05:05:55;;;;;;;53.45;38.45;;;;;;;5.94;100.00;143950.16;5068215;28;20422;-71
2024/02/21 05:08:20;;;;;;;55.03;36.00;;;;;;;5.91;100.00;143959.41;5069649;28;20040;-72
2024/02/21 05:10:46;;;;;;;56.50;38.20;;;;;;;5.44;100.00;143841.63;5050833;28;20033;-69
2024/02/21 05:13:11;;;;;;;53.60;35.22;;;;;;;5.18;100.00;143782.34;5068587;28;20097;-70
2024/02/21 05:15:37;;;;;;;62.35;40.50;;;;;;;5.32;100.00;143843.13;5067948;28;20445;-69
2024/02/21 05:18:02;;;;;;;59.83;38.15;;;;;;;5.36;100.00;143878.34;5050255;28;20046;-68
2024/02/21 05:20:28;;;;;;;54.88;36.78;;;;;;;5.62;100.00;143940.09;5068161;28;20044;-71
2024/02/21 05:22:53;;;;;;;56.80;36.47;;;;;;;4.96;100.00;143783.81;5068810;28;20063;-66
2024/02/21 05:25:19;;;;;;;59.72;39.08;;;;;;;6.16;100.00;144086.63;5068424;28;20430;-68
2024/02/21 05:27:45;;;;;;;57.17;38.20;;;;;;;6.21;100.00;144119.19;5068288;28;20040;-66
2024/02/21 05:30:12;;;;;;;56.90;38.08;;;;;;;5.96;100.00;144085.28;5067634;28;20775;-69
2024/02/21 05:32:37;;;;;;;63.92;39.30;;;;;;;5.60;100.00;144000.41;5066864;28;20028;-71
2024/02/21 05:35:03;;;;;;;56.63;38.47;;;;;;;5.86;100.00;144101.88;5069112;28;20035;-70
2024/02/21 05:37:28;;;;;;;61.65;39.03;;;;;;;4.56;100.00;143807.94;5049722;28;20068;-70
2024/02/21 05:39:54;;;;;;;55.80;37.65;;;;;;;5.90;100.00;144117.88;5068334;28;20474;-67
2024/02/21 05:42:19;;;;;;;56.58;38.20;;;;;;;5.10;100.00;143973.34;5067861;28;20077;-67
2024/02/21 05:44:45;;;;;;;56.75;37.53;;;;;;;4.65;100.00;143907.47;5069375;28;20028;-70
2024/02/21 05:47:12;;;;;;;54.40;35.42;;;;;;;4.40;100.00;143840.34;5068695;28;20095;-72
2024/02/21 05:49:37;;;;;;;50.55;32.95;;;;;;;5.38;100.00;144126.88;5069654;28;20063;-72
2024/02/21 05:52:03;;;;;;;53.35;33.58;;;;;;;5.34;100.00;144101.84;5051047;28;20029;-71
2024/02/21 05:54:28;;;;;;;49.47;32.40;;;;;;;5.70;100.00;144165.09;5049837;28;20059;-70
2024/02/21 05:56:53;;;;;;;48.70;31.55;;;;;;;5.01;100.00;144021.72;5068773;28;20070;-70
2024/02/21 05:59:19;;;;;;;48.90;32.33;;;;;;;5.74;100.00;144209.25;5050391;28;20649;-69
2024/02/21 06:01:44;;;;;;;47.58;32.58;;;;;;;5.39;100.00;144123.00;5068150;28;20055;-70
2024/02/21 06:04:10;;;;;;;52.03;33.72;;;;;;;5.46;100.00;144156.53;5069163;28;20033;-69
2024/02/21 06:06:35;;;;;;;52.33;34.03;;;;;;;5.87;100.00;144293.28;5068283;28;20028;-70
2024/02/21 06:09:02;;;;;;;51.40;35.97;;;;;;;5.14;100.00;144137.44;5068973;28;20032;-70
2024/02/21 06:11:28;;;;;;;61.35;43.22;;;;;;;5.65;100.00;144297.16;5069224;28;20020;-70
2024/02/21 06:13:53;;;;;;;69.93;48.67;;;;;;;5.69;100.00;144318.41;5068366;28;20028;-69
2024/02/21 06:16:19;;;;;;;64.07;44.00;;;;;;;5.82;100.00;144298.97;5067256;28;20407;-69
2024/02/21 06:18:44;;;;;;;68.18;46.33;;;;;;;5.03;100.00;144180.78;5069069;28;20403;-70
2024/02/21 06:21:09;;;;;;;54.83;36.63;;;;;;;5.73;100.00;144324.28;5068915;28;20406;-68
2024/02/21 06:23:36;;;;;;;53.83;34.58;;;;;;;5.21;100.00;144261.59;5056394;28;20033;-69
2024/02/21 06:26:02;;;;;;;56.03;34.10;;;;;;;5.53;100.00;144320.34;5070404;28;20095;-69
2024/02/21 06:28:27;;;;;;;53.53;32.95;;;;;;;6.09;100.00;144474.56;5070204;28;20147;-68
2024/02/21 06:30:53;;;;;;;50.60;31.95;;;;;;;6.13;100.00;144466.41;5060727;28;20399;-69
2024/02/21 06:33:22;;;;;;;48.70;32.10;;;;;;;6.44;100.00;144559.75;5050670;28;20032;-69
2024/02/21 06:35:48;;;;;;;50.80;32.72;;;;;;;6.61;100.00;144500.19;5069626;28;20032;-69
2024/02/21 06:38:13;;;;;;;55.33;34.78;;;;;;;6.42;100.00;144549.75;5069315;28;20513;-68
2024/02/21 06:40:40;;;;;;;62.90;42.35;;;;;;;6.05;100.00;144528.69;5069913;28;20054;-69
2024/02/21 06:43:05;;;;;;;62.40;43.58;;;;;;;6.15;100.00;144481.50;5069263;28;20059;-68
2024/02/21 06:45:31;;;;;;;48.47;34.33;;;;;;;6.93;100.00;144699.53;5069156;28;20028;-71
2024/02/21 06:47:56;;;;;;;52.75;38.25;;;;;;;7.79;100.00;144893.88;5068047;28;20498;-68
2024/02/21 06:50:22;;;;;;;48.60;34.38;;;;;;;7.93;100.00;144951.06;5068710;28;20020;-70
2024/02/21 06:52:47;;;;;;;45.97;31.75;;;;;;;8.25;100.00;145057.38;5057251;28;20037;-75
2024/02/21 06:55:13;;;;;;;45.53;31.55;;;;;;;8.08;100.00;145058.25;5069296;28;20048;-70
2024/02/21 06:57:38;;;;;;;45.22;31.50;;;;;;;8.45;100.00;145180.59;5068486;28;20426;-71
2024/02/21 07:00:08;;;;;;;40.38;28.63;;;;;;;9.08;100.00;145321.69;5068349;28;20045;-69
2024/02/21 07:02:33;;;;;;;38.35;28.52;;;;;;;8.91;100.00;145328.97;5068961;28;20029;-71
2024/02/21 07:04:59;;;;;;;42.72;29.67;;;;;;;8.72;100.00;145382.56;5068608;28;20086;-71
2024/02/21 07:07:24;;;;;;;40.53;30.00;;;;;;;9.07;100.00;145549.06;5068535;28;20060;-70
2024/02/21 07:09:50;;;;;;;41.05;29.88;;;;;;;9.39;100.00;145633.84;5063272;28;20032;-71
2024/02/21 07:12:15;;;;;;;45.00;30.00;;;;;;;9.72;100.00;145740.34;5068802;28;20063;-71
2024/02/21 07:14:41;;;;;;;42.88;31.73;;;;;;;9.54;100.00;145819.69;5068373;28;20090;-71
2024/02/21 07:17:06;;;;;;;50.38;34.47;;;;;;;9.65;100.00;145909.72;5068087;28;20032;-71
2024/02/21 07:19:31;;;;;;;50.15;36.22;;;;;;;9.68;100.00;145963.31;5049823;28;20040;-70
2024/02/21 07:21:57;;;;;;;50.35;36.00;;;;;;;10.19;100.00;146053.66;5050167;28;20031;-71
2024/02/21 07:24:22;;;;;;;48.28;33.50;;;;;;;9.63;100.00;145952.28;5060137;28;20032;-72
2024/02/21 07:26:48;;;;;;;43.85;32.35;;;;;;;9.99;100.00;146036.78;5068579;28;20522;-76
2024/02/21 07:29:13;;;;;;;40.25;29.38;;;;;;;10.24;100.00;146093.03;5068006;28;20127;-71
2024/02/21 07:31:43;;;;;;;39.03;28.40;;;;;;;9.82;100.00;145966.78;5067986;28;20029;-72
2024/02/21 07:34:08;;;;;;;38.50;27.80;;;;;;;9.66;100.00;145877.38;5068801;28;20430;-71
2024/02/21 07:36:34;;;;;;;39.25;27.23;;;;;;;10.06;100.00;145907.31;5068552;28;20483;-70
2024/02/21 07:39:03;;;;;;;34.30;26.00;;;;;;;10.42;100.00;145875.75;5068301;28;20063;-70
2024/02/21 07:41:30;;;;;;;36.75;27.20;;;;;;;10.76;100.00;145840.66;5059967;28;20033;-70
2024/02/21 07:43:55;;;;;;;34.78;27.35;;;;;;;10.40;100.00;145645.66;5058396;28;20028;-70
2024/02/21 07:46:21;;;;;;;33.67;24.92;;;;;;;10.79;100.00;145540.16;5072465;28;20609;-71
2024/02/21 07:48:47;;;;;;;35.33;26.98;;;;;;;10.48;100.00;145416.88;5053902;28;20510;-71
2024/02/21 07:51:12;;;;;;;33.60;25.45;;;;;;;9.80;100.00;145088.75;5072299;28;20505;-70
2024/02/21 07:53:44;;;;;;;35.05;26.08;;;;;;;10.56;100.00;145106.84;5072011;28;20075;-70
2024/02/21 07:56:10;;;;;;;35.35;24.52;;;;;;;10.48;100.00;144925.03;5071485;28;20029;-70
2024/02/21 07:58:36;;;;;;;30.30;23.25;;;;;;;10.72;100.00;144718.31;5071951;28;20058;-70
2024/02/21 08:01:01;;;;;;;36.72;25.45;;;;;;;11.17;100.00;144575.13;5071769;28;20230;-69
2024/02/21 08:03:27;;;;;;;36.15;26.13;;;;;;;10.38;100.00;144159.53;5071485;28;20179;-69
2024/02/21 08:05:52;;;;;;;32.60;23.85;;;;;;;10.35;100.00;143946.47;5071311;28;20528;-69
2024/02/21 08:08:19;;;;;;;34.28;25.27;;;;;;;10.77;100.00;143822.75;5071618;28;20576;-70
2024/02/21 08:10:45;;;;;;;33.17;24.70;;;;;;;10.59;100.00;143564.47;5071464;28;20028;-69
2024/02/21 08:13:11;;;;;;;34.97;25.25;;;;;;;10.94;100.00;143459.47;5052928;28;20105;-69
2024/02/21 08:15:38;;;;;;;36.30;25.30;;;;;;;11.57;100.00;143372.75;5071203;28;20035;-69
2024/02/21 08:18:04;;;;;;;37.47;27.88;;;;;;;11.26;100.00;142976.22;5071342;28;20141;-69
2024/02/21 08:20:29;;;;;;;48.92;32.38;;;;;;;11.64;100.00;142709.09;5071638;28;20025;-69
2024/02/21 08:22:55;;;;;;;40.20;29.40;;;;;;;10.29;100.00;141224.00;5071230;28;20501;-74
2024/02/21 08:25:20;;;;;;;36.72;26.52;;;;;;;11.24;100.00;141244.59;5071772;28;20445;-69
2024/02/21 08:27:46;;;;;;;34.65;25.98;;;;;;;11.30;100.00;140823.66;5071195;28;20048;-70
2024/02/21 08:30:12;;;;;;;37.03;27.88;;;;;;;11.46;100.00;140220.44;5070849;28;20515;-71
2024/02/21 08:32:37;;;;;;;40.35;26.27;;;;;;;11.51;100.00;139493.25;5070214;28;20111;-69
2024/02/21 08:35:04;;;;;;;37.63;27.45;;;;;;;11.79;100.00;138730.56;5071392;28;20104;-70
2024/02/21 08:37:30;;;;;;;36.85;27.38;;;;;;;11.72;100.00;137450.28;5071235;28;20499;-72
2024/02/21 08:39:56;;;;;;;38.42;26.88;;;;;;;11.01;100.00;136061.84;5071578;28;20028;-70
2024/02/21 08:42:21;;;;;;;35.38;25.33;;;;;;;11.24;100.00;135116.91;5054628;28;20036;-70
2024/02/21 08:44:46;;;;;;;43.85;35.22;;;;;;;10.79;100.00;134053.56;5070892;28;20406;-70
2024/02/21 08:47:12;;;;;;;48.50;38.13;;;;;;;10.97;100.00;133468.44;5071137;28;20150;-70
2024/02/21 08:49:38;;;;;;;41.90;32.80;;;;;;;10.68;100.00;132886.66;5070235;28;20067;-71
2024/02/21 08:52:05;;;;;;;36.00;27.83;;;;;;;10.66;100.00;132216.19;5069745;28;20040;-70
2024/02/21 08:54:32;;;;;;;32.00;25.58;;;;;;;10.43;100.00;130732.97;5052313;28;20036;-70
2024/02/21 08:56:57;;;;;;;33.78;25.65;;;;;;;10.31;100.00;130646.66;5053848;28;20038;-71
2024/02/21 08:59:23;;;;;;;34.33;25.25;;;;;;;10.32;100.00;129964.50;5072786;28;20111;-71
2024/02/21 09:01:48;;;;;;;31.67;24.10;;;;;;;11.87;100.00;130689.13;5071675;28;20024;-70
2024/02/21 09:04:13;;;;;;;32.47;23.83;;;;;;;11.53;100.00;128269.69;5071199;28;20028;-70
2024/02/21 09:06:42;;;;;;;28.58;22.88;;;;;;;10.80;100.00;126917.28;5051741;28;20494;-70
2024/02/21 09:09:08;;;;;;;29.75;23.48;;;;;;;11.82;100.00;126985.22;5070542;28;20028;-70
2024/02/21 09:11:34;;;;;;;32.63;23.75;;;;;;;11.27;100.00;126054.06;5069334;28;20162;-71
2024/02/21 09:13:59;;;;;;;33.70;25.25;;;;;;;11.21;100.00;124992.03;5070254;28;20519;-71
2024/02/21 09:16:25;;;;;;;38.15;29.02;;;;;;;11.71;100.00;124349.22;5071338;28;20115;-71
2024/02/21 09:18:51;;;;;;;34.92;27.75;;;;;;;12.16;100.00;121920.97;5069970;28;20431;-70
2024/02/21 09:21:17;;;;;;;31.25;23.95;;;;;;;12.17;100.00;120790.63;5070495;28;20042;-74
2024/02/21 09:23:42;;;;;;;28.42;23.15;;;;;;;12.65;100.00;119102.66;5070752;28;20119;-71
2024/02/21 09:26:10;;;;;;;30.95;24.52;;;;;;;12.43;100.00;117727.09;5051671;28;20417;-70
2024/02/21 09:28:35;;;;;;;27.23;21.15;;;;;;;11.78;100.00;113811.41;5053913;28;20469;-70
2024/02/21 09:31:01;;;;;;;28.05;22.52;;;;;;;12.02;100.00;113124.50;5060734;28;20034;-70
2024/02/21 09:33:27;;;;;;;26.30;21.67;;;;;;;11.97;100.00;113668.44;5071497;28;20028;-71
2024/02/21 09:35:52;;;;;;;25.30;19.95;;;;;;;12.74;100.00;113242.47;5070473;28;20391;-72
2024/02/21 09:38:19;;;;;;;23.88;19.45;;;;;;;12.23;100.00;112202.28;5070212;28;20033;-69
2024/02/21 09:40:44;;;;;;;24.38;19.50;;;;;;;12.20;100.00;110971.78;5070229;28;20035;-69
2024/02/21 09:43:10;;;;;;;25.88;19.90;;;;;;;12.37;100.00;110773.06;5069926;28;20024;-69
2024/02/21 09:45:38;;;;;;;26.25;21.42;;;;;;;12.38;100.00;112314.75;5052888;28;20070;-71
2024/02/21 09:48:16;;;;;;;28.60;21.88;;;;;;;12.99;100.00;111575.38;5069415;28;20028;-69
2024/02/21 09:50:43;;;;;;;24.88;19.73;;;;;;;13.32;100.00;110544.63;5056672;28;20116;-71
2024/02/21 09:53:11;;;;;;;28.85;21.42;;;;;;;12.81;100.00;108486.97;5052148;28;20032;-71
2024/02/21 09:55:40;;;;;;;28.55;22.77;;;;;;;13.79;100.00;108281.56;5051993;28;20040;-70
2024/02/21 09:58:07;;;;;;;34.80;28.48;;;;;;;12.81;100.00;107679.81;5069981;28;20028;-69
2024/02/21 10:00:33;;;;;;;34.88;28.73;;;;;;;12.49;100.00;107538.09;5070991;28;20032;-69
2024/02/21 10:02:59;;;;;;;33.35;26.85;;;;;;;13.58;100.00;107458.66;5051461;28;20498;-71
2024/02/21 10:05:25;;;;;;;31.98;24.63;;;;;;;13.88;100.00;106311.28;5069080;28;20056;-69
2024/02/21 10:07:51;;;;;;;31.13;23.98;;;;;;;13.37;100.00;106143.50;5070827;28;20453;-69
2024/02/21 10:10:17;;;;;;;32.42;25.30;;;;;;;12.88;100.00;105630.97;5050979;28;20029;-69
2024/02/21 10:12:54;;;;;;;29.30;24.10;;;;;;;13.22;100.00;105601.31;5060878;28;20051;-69
2024/02/21 10:15:23;;;;;;;33.22;26.90;;;;;;;12.38;100.00;105121.78;5068289;28;20048;-69
2024/02/21 10:18:00;;;;;;;30.08;24.33;;;;;;;12.79;100.00;105166.34;5067112;28;20108;-69
2024/02/21 10:20:27;;;;;;;30.42;24.48;;;;;;;13.12;100.00;105097.13;5069372;28;20461;-69
2024/02/21 10:23:09;;;;;;;28.48;24.42;;;;;;;14.10;100.00;104929.81;5051624;28;20471;-69
2024/02/21 10:25:35;;;;;;;;;;;;;;;14.25;100.00;104769.03;5069583;28;20031;-69
2024/02/21 10:28:01;;;;;;;26.30;20.25;;;;;;;13.99;100.00;104586.41;5067853;28;20349;-72
2024/02/21 10:30:26;;;;;;;24.30;19.35;;;;;;;13.27;100.00;104387.09;5069081;28;20044;-69
2024/02/21 10:32:55;;;;;;;25.08;19.63;;;;;;;14.25;100.00;104343.97;5051098;28;20484;-69
2024/02/21 10:35:31;;;;;;;24.83;19.63;;;;;;;13.88;100.00;104147.63;5068748;28;20036;-70
2024/02/21 10:37:58;;;;;;;25.45;20.58;;;;;;;15.07;100.00;104009.47;5067708;28;20111;-69
2024/02/21 10:40:24;;;;;;;21.98;17.10;;;;;;;14.22;100.00;103726.94;5068969;28;20086;-69
2024/02/21 10:42:57;;;;;;;23.92;19.08;;;;;;;14.63;100.00;103560.31;5067287;28;20430;-68
2024/02/21 10:45:28;;;;;;;21.83;17.80;;;;;;;13.73;100.00;103359.41;5068596;28;20141;-71
2024/02/21 10:47:57;;;;;;;22.73;17.25;;;;;;;13.01;100.00;102974.25;5067216;28;20028;-69
2024/02/21 10:50:25;;;;;;;21.15;17.58;;;;;;;14.37;100.00;102942.09;5069085;28;20861;-69
2024/02/21 10:53:09;;;;;;;19.42;16.90;;;;;;;13.71;100.00;102573.47;5068900;28;20032;-69
2024/02/21 10:55:46;;;;;;;19.75;16.85;;;;;;;15.23;100.00;102360.41;5068395;28;20036;-69
2024/02/21 10:58:13;;;;;;;20.27;17.17;;;;;;;14.42;100.00;102207.44;5068149;28;20028;-69
2024/02/21 11:00:39;;;;;;;18.77;15.52;;;;;;;13.57;100.00;102036.66;5068356;28;20487;-70
2024/02/21 11:03:05;;;;;;;22.17;17.45;;;;;;;14.68;100.00;101980.16;5069402;28;20052;-73